createdAt,value
2019-03-17T00:03:02.592Z,99029.29
2019-03-17T00:08:06.917Z,99008.81
2019-03-17T00:13:10.459Z,98995.45
2019-03-17T00:18:14.052Z,98992.20
2019-03-17T00:23:17.558Z,98979.22
2019-03-17T00:28:20.869Z,98969.55
2019-03-17T00:33:24.086Z,98967.94
2019-03-17T00:38:27.545Z,98969.77
2019-03-17T00:43:30.755Z,98962.13
2019-03-17T00:48:34.360Z,98938.64
2019-03-17T00:53:37.570Z,98948.77
2019-03-17T00:58:40.868Z,98925.69
2019-03-17T01:03:43.945Z,98929.58
2019-03-17T01:08:47.171Z,98923.27
2019-03-17T01:13:50.497Z,98930.77
2019-03-17T01:18:54.518Z,98914.01
2019-03-17T01:23:58.040Z,98894.72
2019-03-17T01:29:01.605Z,98888.02
2019-03-17T01:34:04.452Z,98881.81
2019-03-17T01:39:07.976Z,98866.21
2019-03-17T01:44:10.938Z,98883.00
2019-03-17T01:49:13.883Z,98862.00
2019-03-17T01:54:17.032Z,98891.81
2019-03-17T01:59:19.933Z,98852.31
2019-03-17T02:04:22.385Z,98865.16
2019-03-17T02:09:25.604Z,98850.34
2019-03-17T02:14:29.140Z,98841.00
2019-03-17T02:19:32.707Z,98829.61
2019-03-17T02:24:35.533Z,98837.39
2019-03-17T02:29:38.738Z,98825.05
2019-03-17T02:34:41.629Z,98814.12
2019-03-17T02:39:46.756Z,98824.70
2019-03-17T02:44:50.277Z,98810.73
2019-03-17T02:49:52.425Z,98798.06
2019-03-17T02:54:56.434Z,98793.44
2019-03-17T02:59:59.968Z,98788.41
2019-03-17T03:05:04.021Z,98786.35
2019-03-17T03:10:07.113Z,98788.08
2019-03-17T03:15:10.204Z,98773.32
2019-03-17T03:20:13.520Z,98772.04
2019-03-17T03:25:16.696Z,98773.16
2019-03-17T03:30:19.990Z,98763.09
2019-03-17T03:35:23.647Z,98754.28
2019-03-17T03:40:26.546Z,98750.53
2019-03-17T03:45:30.061Z,98745.42
2019-03-17T03:50:33.385Z,98739.17
2019-03-17T03:55:36.245Z,98728.67
2019-03-17T04:00:39.801Z,98735.41
2019-03-17T04:05:43.389Z,98709.81
2019-03-17T04:10:46.588Z,98715.48
2019-03-17T04:15:49.851Z,98711.55
2019-03-17T04:20:53.458Z,98723.58
2019-03-17T04:25:56.610Z,98717.69
2019-03-17T04:30:59.882Z,98711.56
2019-03-17T04:36:03.382Z,98711.94
2019-03-17T04:41:06.266Z,98697.53
2019-03-17T04:46:08.878Z,98707.81
2019-03-17T04:51:12.042Z,98698.79
2019-03-17T04:56:15.257Z,98686.52
2019-03-17T05:01:17.833Z,98679.80
2019-03-17T05:06:21.063Z,98676.78
2019-03-17T05:11:24.337Z,98667.30
2019-03-17T05:16:27.599Z,98664.72
2019-03-17T05:21:31.148Z,98659.22
2019-03-17T05:26:34.865Z,98659.31
2019-03-17T05:31:37.398Z,98659.37
2019-03-17T05:36:42.349Z,98648.48
2019-03-17T05:41:45.556Z,98642.73
2019-03-17T05:46:49.028Z,98659.91
2019-03-17T05:51:52.364Z,98664.16
2019-03-17T05:56:56.064Z,98688.81
2019-03-17T06:01:59.301Z,98759.42
2019-03-17T06:07:02.201Z,98765.78
2019-03-17T06:12:05.058Z,98775.55
2019-03-17T06:17:08.309Z,98785.69
2019-03-17T06:22:11.543Z,98807.22
2019-03-17T06:27:14.428Z,98795.31
2019-03-17T06:32:17.645Z,98795.48
2019-03-17T06:37:30.524Z,98817.23
2019-03-17T06:42:25.705Z,98826.09
2019-03-17T06:47:28.914Z,98835.06
2019-03-17T06:52:32.423Z,98839.73
2019-03-17T06:57:35.729Z,98830.61
2019-03-17T07:02:38.749Z,98834.84
2019-03-17T07:07:44.291Z,98820.46
2019-03-17T07:12:47.813Z,98831.78
2019-03-17T07:17:50.691Z,98850.67
2019-03-17T07:22:54.230Z,98848.16
2019-03-17T07:27:57.455Z,98867.47
2019-03-17T07:33:00.777Z,98877.95
2019-03-17T07:38:03.659Z,98878.08
2019-03-17T07:43:06.273Z,98894.38
2019-03-17T07:48:09.779Z,98903.64
2019-03-17T07:53:11.948Z,98909.88
2019-03-17T07:58:15.161Z,98908.94
2019-03-17T08:03:18.323Z,98914.25
2019-03-17T08:08:22.853Z,98912.97
2019-03-17T08:13:25.794Z,98929.88
2019-03-17T08:18:28.894Z,98940.45
2019-03-17T08:23:32.214Z,98936.36
2019-03-17T08:28:35.221Z,98937.71
2019-03-17T08:33:38.534Z,98942.88
2019-03-17T08:38:41.679Z,98954.67
2019-03-17T08:43:53.836Z,98968.01
2019-03-17T08:48:49.741Z,98977.47
2019-03-17T08:53:54.990Z,99009.94
2019-03-17T08:58:58.200Z,99004.33
2019-03-17T09:04:01.512Z,99025.59
2019-03-17T09:09:07.618Z,99043.23
2019-03-17T09:14:11.106Z,99038.50
2019-03-17T09:19:14.752Z,99064.80
2019-03-17T09:24:20.727Z,99063.37
2019-03-17T09:29:23.260Z,99070.38
2019-03-17T09:34:26.669Z,99054.16
2019-03-17T09:39:30.229Z,99069.05
2019-03-17T09:44:33.481Z,99058.84
2019-03-17T09:49:36.969Z,99079.80
2019-03-17T09:54:39.977Z,99087.25
2019-03-17T09:59:44.632Z,99100.36
2019-03-17T10:04:48.143Z,99106.08
2019-03-17T10:09:51.679Z,99106.05
2019-03-17T10:14:54.604Z,99111.08
2019-03-17T10:19:58.265Z,99139.16
2019-03-17T10:25:01.488Z,99134.83
2019-03-17T10:30:05.247Z,99105.05
2019-03-17T10:35:08.622Z,99108.55
2019-03-17T10:40:13.119Z,99108.70
2019-03-17T10:45:16.314Z,99115.47
2019-03-17T10:50:19.515Z,99109.45
2019-03-17T10:55:21.964Z,99117.23
2019-03-17T11:00:25.498Z,99159.12
2019-03-17T11:05:29.083Z,99123.72
2019-03-17T11:10:31.674Z,99116.98
2019-03-17T11:15:34.849Z,99161.27
2019-03-17T11:20:37.327Z,99164.36
2019-03-17T11:25:40.603Z,99193.56
2019-03-17T11:30:45.676Z,99161.16
2019-03-17T11:35:49.236Z,99171.13
2019-03-17T11:40:52.855Z,99177.23
2019-03-17T11:45:56.538Z,99176.28
2019-03-17T11:50:59.985Z,99185.37
2019-03-17T11:56:03.110Z,99199.80
2019-03-17T12:01:06.913Z,99212.44
2019-03-17T12:06:10.207Z,99198.11
2019-03-17T12:11:13.637Z,99219.64
2019-03-17T12:16:16.891Z,99253.05
2019-03-17T12:21:20.225Z,99233.05
2019-03-17T12:26:23.443Z,99248.36
2019-03-17T12:31:26.762Z,99238.80
2019-03-17T12:36:30.253Z,99240.35
2019-03-17T12:41:33.802Z,99241.27
2019-03-17T12:46:36.857Z,99244.11
2019-03-17T12:51:39.530Z,99233.50
2019-03-17T12:56:42.802Z,99246.17
2019-03-17T13:01:46.155Z,99246.59
2019-03-17T13:06:49.936Z,99240.73
2019-03-17T13:11:53.593Z,99231.30
2019-03-17T13:16:56.971Z,99277.67
2019-03-17T13:22:00.636Z,99265.59
2019-03-17T13:27:04.322Z,99275.59
2019-03-17T13:32:07.683Z,99268.30
2019-03-17T13:37:10.984Z,99263.31
2019-03-17T13:42:14.288Z,99270.28
2019-03-17T13:47:17.894Z,99268.34
2019-03-17T13:52:21.172Z,99283.38
2019-03-17T13:57:24.495Z,99292.54
2019-03-17T14:02:27.816Z,99303.41
2019-03-17T14:07:31.169Z,99311.08
2019-03-17T14:12:34.212Z,99296.47
2019-03-17T14:17:37.516Z,99298.29
2019-03-17T14:22:40.894Z,99317.12
2019-03-17T14:27:44.513Z,99311.28
2019-03-17T14:32:48.128Z,99336.71
2019-03-17T14:37:51.306Z,99330.47
2019-03-17T14:42:55.657Z,99343.20
2019-03-17T14:47:59.256Z,99354.66
2019-03-17T14:53:02.854Z,99376.21
2019-03-17T14:58:06.296Z,99376.22
2019-03-17T15:03:09.494Z,99376.52
2019-03-17T15:08:13.138Z,99398.25
2019-03-17T15:13:16.845Z,99379.55
2019-03-17T15:18:20.108Z,99396.01
2019-03-17T15:23:23.067Z,99400.66
2019-03-17T15:28:26.385Z,99413.72
2019-03-17T15:33:30.025Z,99420.77
2019-03-17T15:38:33.264Z,99426.95
2019-03-17T15:43:36.861Z,99426.45
2019-03-17T15:48:40.498Z,99438.09
2019-03-17T15:53:44.106Z,99439.17
2019-03-17T15:58:47.478Z,99440.07
2019-03-17T16:03:50.693Z,99450.97
2019-03-17T16:08:54.096Z,99459.77
2019-03-17T16:13:57.000Z,99474.27
2019-03-17T16:19:00.410Z,99477.91
2019-03-17T16:24:04.070Z,99481.89
2019-03-17T16:29:07.577Z,99500.72
2019-03-17T16:34:11.315Z,99487.10
2019-03-17T16:39:14.993Z,99506.80
2019-03-17T16:44:18.618Z,99490.95
2019-03-17T16:49:22.204Z,99497.37
2019-03-17T16:54:25.244Z,99504.58
2019-03-17T16:59:28.849Z,99506.08
2019-03-17T17:04:32.293Z,99504.83
2019-03-17T17:09:35.793Z,99509.06
2019-03-17T17:14:39.288Z,99515.00
2019-03-17T17:19:43.069Z,99528.23
2019-03-17T17:24:46.973Z,99524.72
2019-03-17T17:29:50.863Z,99527.40
2019-03-17T17:34:54.505Z,99530.81
2019-03-17T17:39:58.428Z,99556.09
2019-03-17T17:45:02.482Z,99547.67
2019-03-17T17:50:07.988Z,99551.60
2019-03-17T17:55:12.341Z,99559.59
2019-03-17T18:00:21.042Z,99572.41
2019-03-17T18:05:26.475Z,99551.60
2019-03-17T18:10:31.683Z,99560.63
2019-03-17T18:15:37.364Z,99543.70
2019-03-17T18:20:41.807Z,99559.81
2019-03-17T18:25:48.129Z,99549.00
2019-03-17T18:30:53.972Z,99555.39
2019-03-17T18:35:58.538Z,99561.42
2019-03-17T18:41:03.325Z,99573.16
2019-03-17T18:46:09.424Z,99570.03
2019-03-17T18:51:16.519Z,99585.43
2019-03-17T18:56:23.190Z,99573.76
2019-03-17T19:01:28.051Z,99609.27
2019-03-17T19:06:35.335Z,99593.09
2019-03-17T19:11:42.041Z,99617.64
2019-03-17T19:16:46.961Z,99599.60
2019-03-17T19:21:55.362Z,99598.48
2019-03-17T19:27:01.981Z,99588.91
2019-03-17T19:32:08.106Z,99587.91
2019-03-17T19:37:15.432Z,99596.63
2019-03-17T19:42:28.033Z,99602.63
2019-03-17T19:47:34.341Z,99580.63
2019-03-17T19:52:41.115Z,99585.30
2019-03-17T19:57:49.710Z,99588.87
2019-03-17T20:02:55.224Z,99584.48
2019-03-17T20:08:02.606Z,99575.34
2019-03-17T20:13:12.090Z,99577.13
2019-03-17T20:18:20.740Z,99590.31
2019-03-17T20:23:30.112Z,99579.95
2019-03-17T20:28:38.020Z,99594.73
2019-03-17T20:33:46.922Z,99593.14
2019-03-17T20:38:55.094Z,99591.89
2019-03-17T20:44:01.982Z,99573.13
2019-03-17T20:49:08.455Z,99575.21
2019-03-17T20:54:13.012Z,99566.64
2019-03-17T20:59:19.555Z,99578.97
2019-03-17T21:04:25.783Z,99573.38
2019-03-17T21:09:31.737Z,99580.36
2019-03-17T21:14:38.257Z,99577.72
2019-03-17T21:19:42.369Z,99577.28
2019-03-17T21:24:48.029Z,99572.70
2019-03-17T21:29:52.525Z,99583.52
2019-03-17T21:34:56.187Z,99577.67
2019-03-17T21:39:59.222Z,99572.67
2019-03-17T21:45:02.865Z,99556.59
2019-03-17T21:50:07.416Z,99568.11
2019-03-17T21:55:11.224Z,99557.07
2019-03-17T22:00:14.691Z,99575.98
2019-03-17T22:05:18.040Z,99577.25
2019-03-17T22:10:21.347Z,99592.77
2019-03-17T22:15:26.066Z,99627.97
2019-03-17T22:20:29.269Z,99673.18
2019-03-17T22:25:32.833Z,99663.77
2019-03-17T22:30:35.890Z,99651.62
2019-03-17T22:35:39.241Z,99648.80
2019-03-17T22:40:42.161Z,99646.81
2019-03-17T22:45:45.205Z,99642.77
2019-03-17T22:50:48.761Z,99643.55
2019-03-17T22:55:52.336Z,99634.33
2019-03-17T23:00:55.514Z,99647.64
2019-03-17T23:05:58.290Z,99655.58
2019-03-17T23:11:02.006Z,99643.23
2019-03-17T23:16:05.505Z,99632.59
2019-03-17T23:21:09.823Z,99631.73
2019-03-17T23:26:12.978Z,99620.89
2019-03-17T23:31:15.999Z,99618.17
2019-03-17T23:36:18.997Z,99604.50
2019-03-17T23:41:21.642Z,99616.91
2019-03-17T23:46:24.951Z,99619.78
2019-03-17T23:51:28.110Z,99629.45
2019-03-17T23:56:31.680Z,99617.34
